Station Historical Data
Daily Summary for February 11, 2017 Units:  Both    English   Metric
« Previous Day
Next Day »
Daily Weekly Monthly Yearly Custom
  High: Low: Average:
Temperature: 39.9 °F /  4.4 °C 31.0 °F /  -0.6 °C 34.8 °F /  1.6 °C
Dew Point: 33.9 °F /  1.1 °C 19.2 °F /  -7.1 °C 28.7 °F /  -1.8 °C
Humidity: 85% 61% 79%
Wind Speed: 6.0mph /  9.7km/h - 2.3mph /  3.7km/h
Wind Gust: 10.0mph /  16.1km/h - -
Wind- - SSW
Pressure: 30.06 in /  1017.8 hPa 29.77 in /  1008 hPa -
Precipitation: 0.00 in /  0 mm    
Historical Graphs
 
 
Tabular Data for February 11, 2017
Time Temperature Dew Point Pressure Wind Wind Speed Wind Gust Humidity Rainfall Rate (Hourly)
00:04 31.1 °F /  -0.5 °C 19.2 °F /  -7.1 °C 29.81in /  1009.4hPa SW 3.0mph /  4.8km/h 7.0mph /  11.3km/h 61% 0.00in /  0mm
00:09 31.0 °F /  -0.6 °C 19.5 °F /  -6.9 °C 29.81in /  1009.4hPa WSW 3.0mph /  4.8km/h 6.0mph /  9.7km/h 62% 0.00in /  0mm
00:14 31.1 °F /  -0.5 °C 19.6 °F /  -6.9 °C 29.80in /  1009hPa SW 3.0mph /  4.8km/h 6.0mph /  9.7km/h 62% 0.00in /  0mm
00:19 31.2 °F /  -0.4 °C 19.7 °F /  -6.8 °C 29.80in /  1009hPa SW 2.0mph /  3.2km/h 6.0mph /  9.7km/h 62% 0.00in /  0mm
00:24 31.3 °F /  -0.4 °C 19.8 °F /  -6.8 °C 29.81in /  1009.4hPa WSW 3.0mph /  4.8km/h 7.0mph /  11.3km/h 62% 0.00in /  0mm
00:29 31.4 °F /  -0.3 °C 20.2 °F /  -6.6 °C 29.80in /  1009hPa SW 3.0mph /  4.8km/h 8.0mph /  12.9km/h 63% 0.00in /  0mm
00:34 31.4 °F /  -0.3 °C 20.2 °F /  -6.6 °C 29.80in /  1009hPa SW 3.0mph /  4.8km/h 8.0mph /  12.9km/h 63% 0.00in /  0mm
00:39 31.4 °F /  -0.3 °C 19.9 °F /  -6.7 °C 29.80in /  1009hPa SW 2.0mph /  3.2km/h 5.0mph /  8km/h 62% 0.00in /  0mm
00:44 31.4 °F /  -0.3 °C 19.9 °F /  -6.7 °C 29.80in /  1009hPa SSW 4.0mph /  6.4km/h 6.0mph /  9.7km/h 62% 0.00in /  0mm
00:49 31.5 °F /  -0.3 °C 20.0 °F /  -6.7 °C 29.80in /  1009hPa SW 3.0mph /  4.8km/h 5.0mph /  8km/h 62% 0.00in /  0mm
00:54 31.4 °F /  -0.3 °C 19.9 °F /  -6.7 °C 29.79in /  1008.7hPa SW 3.0mph /  4.8km/h 4.0mph /  6.4km/h 62% 0.00in /  0mm
00:59 31.4 °F /  -0.3 °C 19.9 °F /  -6.7 °C 29.79in /  1008.7hPa SW 2.0mph /  3.2km/h 5.0mph /  8km/h 62% 0.00in /  0mm
01:04 31.3 °F /  -0.4 °C 20.2 °F /  -6.6 °C 29.79in /  1008.7hPa SW 2.0mph /  3.2km/h 5.0mph /  8km/h 63% 0.00in /  0mm
01:09 31.2 °F /  -0.4 °C 20.4 °F /  -6.4 °C 29.79in /  1008.7hPa WSW 3.0mph /  4.8km/h 3.0mph /  4.8km/h 64% 0.00in /  0mm
01:14 31.2 °F /  -0.4 °C 20.1 °F /  -6.6 °C 29.78in /  1008.4hPa SW 1.0mph /  1.6km/h 4.0mph /  6.4km/h 63% 0.00in /  0mm
01:19 31.2 °F /  -0.4 °C 20.4 °F /  -6.4 °C 29.79in /  1008.7hPa West 1.0mph /  1.6km/h 4.0mph /  6.4km/h 64% 0.00in /  0mm
01:24 31.2 °F /  -0.4 °C 20.4 °F /  -6.4 °C 29.79in /  1008.7hPa SW 2.0mph /  3.2km/h 5.0mph /  8km/h 64% 0.00in /  0mm
01:29 31.3 °F /  -0.4 °C 20.9 °F /  -6.2 °C 29.78in /  1008.4hPa Calm   5.0mph /  8km/h 65% 0.00in /  0mm
01:34 31.4 °F /  -0.3 °C 20.6 °F /  -6.3 °C 29.79in /  1008.7hPa WSW 2.0mph /  3.2km/h 5.0mph /  8km/h 64% 0.00in /  0mm
01:39 31.5 °F /  -0.3 °C 21.1 °F /  -6.1 °C 29.78in /  1008.4hPa WSW 2.0mph /  3.2km/h 6.0mph /  9.7km/h 65% 0.00in /  0mm
01:44 31.5 °F /  -0.3 °C 21.1 °F /  -6.1 °C 29.78in /  1008.4hPa SW 3.0mph /  4.8km/h 7.0mph /  11.3km/h 65% 0.00in /  0mm
01:49 31.5 °F /  -0.3 °C 21.4 °F /  -5.9 °C 29.78in /  1008.4hPa SW 2.0mph /  3.2km/h 4.0mph /  6.4km/h 66% 0.00in /  0mm
01:54 31.6 °F /  -0.2 °C 21.5 °F /  -5.8 °C 29.78in /  1008.4hPa WSW 2.0mph /  3.2km/h 3.0mph /  4.8km/h 66% 0.00in /  0mm
01:59 31.6 °F /  -0.2 °C 21.9 °F /  -5.6 °C 29.79in /  1008.7hPa West 2.0mph /  3.2km/h 3.0mph /  4.8km/h 67% 0.00in /  0mm
02:04 31.5 °F /  -0.3 °C 21.4 °F /  -5.9 °C 29.78in /  1008.4hPa SW 2.0mph /  3.2km/h 7.0mph /  11.3km/h 66% 0.00in /  0mm
02:09 31.6 °F /  -0.2 °C 21.5 °F /  -5.8 °C 29.78in /  1008.4hPa SSW 3.0mph /  4.8km/h 7.0mph /  11.3km/h 66% 0.00in /  0mm
02:14 31.7 °F /  -0.2 °C 21.6 °F /  -5.8 °C 29.77in /  1008hPa SSW 3.0mph /  4.8km/h 6.0mph /  9.7km/h 66% 0.00in /  0mm
02:19 31.8 °F /  -0.1 °C 21.7 °F /  -5.7 °C 29.77in /  1008hPa SSW 4.0mph /  6.4km/h 5.0mph /  8km/h 66% 0.00in /  0mm
02:24 31.9 °F /  -0.1 °C 22.2 °F /  -5.4 °C 29.77in /  1008hPa WSW 2.0mph /  3.2km/h 4.0mph /  6.4km/h 67% 0.00in /  0mm
02:29 31.9 °F /  -0.1 °C 22.2 °F /  -5.4 °C 29.78in /  1008.4hPa Calm   4.0mph /  6.4km/h 67% 0.00in /  0mm
02:34 31.8 °F /  -0.1 °C 22.1 °F /  -5.5 °C 29.78in /  1008.4hPa WSW 2.0mph /  3.2km/h 4.0mph /  6.4km/h 67% 0.00in /  0mm
02:39 32.0 °F /  0 °C 22.3 °F /  -5.4 °C 29.78in /  1008.4hPa SW 2.0mph /  3.2km/h 5.0mph /  8km/h 67% 0.00in /  0mm
02:44 32.0 °F /  0 °C 22.3 °F /  -5.4 °C 29.78in /  1008.4hPa SW 2.0mph /  3.2km/h 5.0mph /  8km/h 67% 0.00in /  0mm
02:49 32.1 °F /  0.1 °C 22.7 °F /  -5.2 °C 29.77in /  1008hPa SW 3.0mph /  4.8km/h 4.0mph /  6.4km/h 68% 0.00in /  0mm
02:54 32.1 °F /  0.1 °C 22.7 °F /  -5.2 °C 29.77in /  1008hPa SW 3.0mph /  4.8km/h 4.0mph /  6.4km/h 68% 0.00in /  0mm
02:59 32.1 °F /  0.1 °C 22.7 °F /  -5.2 °C 29.77in /  1008hPa Calm   3.0mph /  4.8km/h 68% 0.00in /  0mm
03:04 32.1 °F /  0.1 °C 23.1 °F /  -4.9 °C 29.77in /  1008hPa Calm   2.0mph /  3.2km/h 69% 0.00in /  0mm
03:09 32.1 °F /  0.1 °C 22.7 °F /  -5.2 °C 29.77in /  1008hPa WSW 1.0mph /  1.6km/h 4.0mph /  6.4km/h 68% 0.00in /  0mm
03:14 32.1 °F /  0.1 °C 23.1 °F /  -4.9 °C 29.78in /  1008.4hPa WSW 2.0mph /  3.2km/h 4.0mph /  6.4km/h 69% 0.00in /  0mm
03:19 32.2 °F /  0.1 °C 22.8 °F /  -5.1 °C 29.78in /  1008.4hPa WSW 2.0mph /  3.2km/h 4.0mph /  6.4km/h 68% 0.00in /  0mm
03:24 32.3 °F /  0.2 °C 22.9 °F /  -5.1 °C 29.78in /  1008.4hPa WSW 1.0mph /  1.6km/h 4.0mph /  6.4km/h 68% 0.00in /  0mm
03:29 32.4 °F /  0.2 °C 23.0 °F /  -5 °C 29.79in /  1008.7hPa SW 3.0mph /  4.8km/h 4.0mph /  6.4km/h 68% 0.00in /  0mm
03:34 32.4 °F /  0.2 °C 23.4 °F /  -4.8 °C 29.79in /  1008.7hPa SW 2.0mph /  3.2km/h 4.0mph /  6.4km/h 69% 0.00in /  0mm
03:39 32.4 °F /  0.2 °C 23.4 °F /  -4.8 °C 29.78in /  1008.4hPa SW 1.0mph /  1.6km/h 4.0mph /  6.4km/h 69% 0.00in /  0mm
03:44 32.3 °F /  0.2 °C 23.3 °F /  -4.8 °C 29.78in /  1008.4hPa SW 1.0mph /  1.6km/h 4.0mph /  6.4km/h 69% 0.00in /  0mm
03:49 32.3 °F /  0.2 °C 23.6 °F /  -4.7 °C 29.78in /  1008.4hPa SW 1.0mph /  1.6km/h 4.0mph /  6.4km/h 70% 0.00in /  0mm
03:54 32.2 °F /  0.1 °C 23.5 °F /  -4.7 °C 29.78in /  1008.4hPa SW 1.0mph /  1.6km/h 2.0mph /  3.2km/h 70% 0.00in /  0mm
03:59 32.0 °F /  0 °C 23.3 °F /  -4.8 °C 29.78in /  1008.4hPa Calm   2.0mph /  3.2km/h 70% 0.00in /  0mm
04:04 31.8 °F /  -0.1 °C 23.1 °F /  -4.9 °C 29.78in /  1008.4hPa SSW 1.0mph /  1.6km/h 4.0mph /  6.4km/h 70% 0.00in /  0mm
04:09 31.6 °F /  -0.2 °C 22.9 °F /  -5.1 °C 29.78in /  1008.4hPa SSW 1.0mph /  1.6km/h 4.0mph /  6.4km/h 70% 0.00in /  0mm
04:14 31.6 °F /  -0.2 °C 23.3 °F /  -4.8 °C 29.78in /  1008.4hPa SSW 1.0mph /  1.6km/h 3.0mph /  4.8km/h 71% 0.00in /  0mm
04:19 31.5 °F /  -0.3 °C 23.2 °F /  -4.9 °C 29.78in /  1008.4hPa SW 1.0mph /  1.6km/h 4.0mph /  6.4km/h 71% 0.00in /  0mm
04:24 31.2 °F /  -0.4 °C 22.9 °F /  -5.1 °C 29.78in /  1008.4hPa SW 1.0mph /  1.6km/h 4.0mph /  6.4km/h 71% 0.00in /  0mm
04:29 31.1 °F /  -0.5 °C 23.1 °F /  -4.9 °C 29.79in /  1008.7hPa Calm   4.0mph /  6.4km/h 72% 0.00in /  0mm
04:34 31.1 °F /  -0.5 °C 23.1 °F /  -4.9 °C 29.79in /  1008.7hPa SW 1.0mph /  1.6km/h 2.0mph /  3.2km/h 72% 0.00in /  0mm
04:39 31.1 °F /  -0.5 °C 23.1 °F /  -4.9 °C 29.79in /  1008.7hPa SW 1.0mph /  1.6km/h 3.0mph /  4.8km/h 72% 0.00in /  0mm
04:44 31.2 °F /  -0.4 °C 23.5 °F /  -4.7 °C 29.79in /  1008.7hPa SW 1.0mph /  1.6km/h 4.0mph /  6.4km/h 73% 0.00in /  0mm
04:49 31.3 °F /  -0.4 °C 23.6 °F /  -4.7 °C 29.79in /  1008.7hPa SW 1.0mph /  1.6km/h 4.0mph /  6.4km/h 73% 0.00in /  0mm
04:54 31.1 °F /  -0.5 °C 23.5 °F /  -4.7 °C 29.79in /  1008.7hPa SW 1.0mph /  1.6km/h 4.0mph /  6.4km/h 73% 0.00in /  0mm
04:59 31.1 °F /  -0.5 °C 24.1 °F /  -4.4 °C 29.79in /  1008.7hPa SSW 1.0mph /  1.6km/h 3.0mph /  4.8km/h 75% 0.00in /  0mm
05:04 31.2 °F /  -0.4 °C 24.5 °F /  -4.2 °C 29.79in /  1008.7hPa SW 1.0mph /  1.6km/h 4.0mph /  6.4km/h 76% 0.00in /  0mm
05:09 31.4 °F /  -0.3 °C 25.0 °F /  -3.9 °C 29.79in /  1008.7hPa SW 2.0mph /  3.2km/h 4.0mph /  6.4km/h 77% 0.00in /  0mm
05:14 31.5 °F /  -0.3 °C 25.4 °F /  -3.7 °C 29.79in /  1008.7hPa SW 2.0mph /  3.2km/h 4.0mph /  6.4km/h 78% 0.00in /  0mm
05:19 31.8 °F /  -0.1 °C 26.3 °F /  -3.2 °C 29.80in /  1009hPa WSW 4.0mph /  6.4km/h 7.0mph /  11.3km/h 80% 0.00in /  0mm
05:24 32.3 °F /  0.2 °C 26.8 °F /  -2.9 °C 29.80in /  1009hPa WSW 6.0mph /  9.7km/h 6.0mph /  9.7km/h 80% 0.00in /  0mm
05:29 32.7 °F /  0.4 °C 27.5 °F /  -2.5 °C 29.80in /  1009hPa WSW 4.0mph /  6.4km/h 7.0mph /  11.3km/h 81% 0.00in /  0mm
05:34 33.0 °F /  0.6 °C 27.8 °F /  -2.3 °C 29.80in /  1009hPa WSW 1.0mph /  1.6km/h 7.0mph /  11.3km/h 81% 0.00in /  0mm
05:39 33.3 °F /  0.7 °C 28.1 °F /  -2.2 °C 29.79in /  1008.7hPa SW 2.0mph /  3.2km/h 7.0mph /  11.3km/h 81% 0.00in /  0mm
05:44 33.5 °F /  0.8 °C 28.3 °F /  -2.1 °C 29.80in /  1009hPa WSW 4.0mph /  6.4km/h 10.0mph /  16.1km/h 81% 0.00in /  0mm
05:49 33.9 °F /  1.1 °C 28.7 °F /  -1.8 °C 29.80in /  1009hPa WSW 5.0mph /  8km/h 10.0mph /  16.1km/h 81% 0.00in /  0mm
05:54 34.0 °F /  1.1 °C 28.5 °F /  -1.9 °C 29.80in /  1009hPa WSW 4.0mph /  6.4km/h 8.0mph /  12.9km/h 80% 0.00in /  0mm
05:59 34.2 °F /  1.2 °C 28.7 °F /  -1.8 °C 29.81in /  1009.4hPa WSW 4.0mph /  6.4km/h 8.0mph /  12.9km/h 80% 0.00in /  0mm
06:04 34.2 °F /  1.2 °C 28.7 °F /  -1.8 °C 29.80in /  1009hPa West 4.0mph /  6.4km/h 6.0mph /  9.7km/h 80% 0.00in /  0mm
06:09 34.1 °F /  1.2 °C 28.6 °F /  -1.9 °C 29.80in /  1009hPa WSW 3.0mph /  4.8km/h 6.0mph /  9.7km/h 80% 0.00in /  0mm
06:14 34.0 °F /  1.1 °C 28.5 °F /  -1.9 °C 29.80in /  1009hPa WSW 4.0mph /  6.4km/h 7.0mph /  11.3km/h 80% 0.00in /  0mm
06:19 34.0 °F /  1.1 °C 28.5 °F /  -1.9 °C 29.81in /  1009.4hPa WSW 3.0mph /  4.8km/h 7.0mph /  11.3km/h 80% 0.00in /  0mm
06:24 33.8 °F /  1 °C 28.3 °F /  -2.1 °C 29.81in /  1009.4hPa WSW 3.0mph /  4.8km/h 6.0mph /  9.7km/h 80% 0.00in /  0mm
06:29 33.6 °F /  0.9 °C 28.1 °F /  -2.2 °C 29.81in /  1009.4hPa WSW 2.0mph /  3.2km/h 5.0mph /  8km/h 80% 0.00in /  0mm
06:34 33.5 °F /  0.8 °C 28.0 °F /  -2.2 °C 29.81in /  1009.4hPa WSW 3.0mph /  4.8km/h 5.0mph /  8km/h 80% 0.00in /  0mm
06:39 33.3 °F /  0.7 °C 28.1 °F /  -2.2 °C 29.82in /  1009.7hPa WSW 3.0mph /  4.8km/h 5.0mph /  8km/h 81% 0.00in /  0mm
06:44 33.0 °F /  0.6 °C 28.1 °F /  -2.2 °C 29.82in /  1009.7hPa SW 2.0mph /  3.2km/h 4.0mph /  6.4km/h 82% 0.00in /  0mm
06:49 32.9 °F /  0.5 °C 28.0 °F /  -2.2 °C 29.82in /  1009.7hPa SW 3.0mph /  4.8km/h 5.0mph /  8km/h 82% 0.00in /  0mm
06:54 32.7 °F /  0.4 °C 28.1 °F /  -2.2 °C 29.82in /  1009.7hPa WSW 3.0mph /  4.8km/h 6.0mph /  9.7km/h 83% 0.00in /  0mm
06:59 32.6 °F /  0.3 °C 28.0 °F /  -2.2 °C 29.82in /  1009.7hPa WSW 3.0mph /  4.8km/h 6.0mph /  9.7km/h 83% 0.00in /  0mm
07:04 32.5 °F /  0.3 °C 27.9 °F /  -2.3 °C 29.82in /  1009.7hPa WSW 3.0mph /  4.8km/h 5.0mph /  8km/h 83% 0.00in /  0mm
07:09 32.3 °F /  0.2 °C 28.0 °F /  -2.2 °C 29.83in /  1010hPa WSW 3.0mph /  4.8km/h 4.0mph /  6.4km/h 84% 0.00in /  0mm
07:14 32.2 °F /  0.1 °C 27.9 °F /  -2.3 °C 29.83in /  1010hPa WSW 1.0mph /  1.6km/h 5.0mph /  8km/h 84% 0.00in /  0mm
07:19 32.1 °F /  0.1 °C 27.8 °F /  -2.3 °C 29.83in /  1010hPa WSW 3.0mph /  4.8km/h 4.0mph /  6.4km/h 84% 0.00in /  0mm
07:24 32.2 °F /  0.1 °C 28.2 °F /  -2.1 °C 29.83in /  1010hPa SW 3.0mph /  4.8km/h 5.0mph /  8km/h 85% 0.00in /  0mm
07:29 32.3 °F /  0.2 °C 28.3 °F /  -2.1 °C 29.83in /  1010hPa SW 3.0mph /  4.8km/h 6.0mph /  9.7km/h 85% 0.00in /  0mm
07:34 32.5 °F /  0.3 °C 28.5 °F /  -1.9 °C 29.84in /  1010.4hPa SW 3.0mph /  4.8km/h 6.0mph /  9.7km/h 85% 0.00in /  0mm
07:39 32.6 °F /  0.3 °C 28.6 °F /  -1.9 °C 29.84in /  1010.4hPa SW 2.0mph /  3.2km/h 4.0mph /  6.4km/h 85% 0.00in /  0mm
07:44 32.8 °F /  0.4 °C 28.8 °F /  -1.8 °C 29.85in /  1010.7hPa WSW 3.0mph /  4.8km/h 5.0mph /  8km/h 85% 0.00in /  0mm
07:49 33.0 °F /  0.6 °C 29.0 °F /  -1.7 °C 29.84in /  1010.4hPa WSW 5.0mph /  8km/h 7.0mph /  11.3km/h 85% 0.00in /  0mm
07:54 33.2 °F /  0.7 °C 29.2 °F /  -1.6 °C 29.84in /  1010.4hPa WSW 3.0mph /  4.8km/h 6.0mph /  9.7km/h 85% 0.00in /  0mm
07:59 33.6 °F /  0.9 °C 29.6 °F /  -1.3 °C 29.85in /  1010.7hPa WSW 4.0mph /  6.4km/h 8.0mph /  12.9km/h 85% 0.00in /  0mm
08:04 33.9 °F /  1.1 °C 29.9 °F /  -1.2 °C 29.86in /  1011.1hPa WSW 4.0mph /  6.4km/h 8.0mph /  12.9km/h 85% 0.00in /  0mm
08:09 34.1 °F /  1.2 °C 30.1 °F /  -1.1 °C 29.86in /  1011.1hPa WSW 5.0mph /  8km/h 10.0mph /  16.1km/h 85% 0.00in /  0mm
08:14 34.2 °F /  1.2 °C 30.2 °F /  -1 °C 29.86in /  1011.1hPa WSW 5.0mph /  8km/h 10.0mph /  16.1km/h 85% 0.00in /  0mm
08:19 34.2 °F /  1.2 °C 30.2 °F /  -1 °C 29.86in /  1011.1hPa West 3.0mph /  4.8km/h 8.0mph /  12.9km/h 85% 0.00in /  0mm
08:24 34.3 °F /  1.3 °C 30.3 °F /  -0.9 °C 29.87in /  1011.4hPa West 4.0mph /  6.4km/h 8.0mph /  12.9km/h 85% 0.00in /  0mm
08:29 34.3 °F /  1.3 °C 30.3 °F /  -0.9 °C 29.88in /  1011.7hPa WSW 4.0mph /  6.4km/h 8.0mph /  12.9km/h 85% 0.00in /  0mm
08:34 34.4 °F /  1.3 °C 30.4 °F /  -0.9 °C 29.88in /  1011.7hPa WSW 4.0mph /  6.4km/h 8.0mph /  12.9km/h 85% 0.00in /  0mm
08:39 34.6 °F /  1.4 °C 30.6 °F /  -0.8 °C 29.88in /  1011.7hPa WSW 4.0mph /  6.4km/h 9.0mph /  14.5km/h 85% 0.00in /  0mm
08:44 34.6 °F /  1.4 °C 30.6 °F /  -0.8 °C 29.88in /  1011.7hPa WSW 4.0mph /  6.4km/h 10.0mph /  16.1km/h 85% 0.00in /  0mm
08:49 34.7 °F /  1.5 °C 30.7 °F /  -0.7 °C 29.88in /  1011.7hPa West 3.0mph /  4.8km/h 7.0mph /  11.3km/h 85% 0.00in /  0mm
08:54 34.7 °F /  1.5 °C 30.7 °F /  -0.7 °C 29.88in /  1011.7hPa WSW 5.0mph /  8km/h 6.0mph /  9.7km/h 85% 0.00in /  0mm
08:59 34.8 °F /  1.6 °C 30.8 °F /  -0.7 °C 29.89in /  1012.1hPa WSW 4.0mph /  6.4km/h 8.0mph /  12.9km/h 85% 0.00in /  0mm
09:04 34.8 °F /  1.6 °C 30.5 °F /  -0.8 °C 29.89in /  1012.1hPa WSW 4.0mph /  6.4km/h 8.0mph /  12.9km/h 84% 0.00in /  0mm
09:09 34.9 °F /  1.6 °C 30.6 °F /  -0.8 °C 29.88in /  1011.7hPa WSW 4.0mph /  6.4km/h 8.0mph /  12.9km/h 84% 0.00in /  0mm
09:14 35.0 °F /  1.7 °C 30.7 °F /  -0.7 °C 29.89in /  1012.1hPa WSW 4.0mph /  6.4km/h 7.0mph /  11.3km/h 84% 0.00in /  0mm
09:19 35.1 °F /  1.7 °C 30.8 °F /  -0.7 °C 29.89in /  1012.1hPa WSW 4.0mph /  6.4km/h 7.0mph /  11.3km/h 84% 0.00in /  0mm
09:24 35.1 °F /  1.7 °C 30.8 °F /  -0.7 °C 29.89in /  1012.1hPa SW 3.0mph /  4.8km/h 8.0mph /  12.9km/h 84% 0.00in /  0mm
09:29 35.2 °F /  1.8 °C 30.9 °F /  -0.6 °C 29.88in /  1011.7hPa SW 3.0mph /  4.8km/h 7.0mph /  11.3km/h 84% 0.00in /  0mm
09:34 35.2 °F /  1.8 °C 30.9 °F /  -0.6 °C 29.88in /  1011.7hPa SW 4.0mph /  6.4km/h 7.0mph /  11.3km/h 84% 0.00in /  0mm
09:39 35.2 °F /  1.8 °C 30.9 °F /  -0.6 °C 29.89in /  1012.1hPa SW 4.0mph /  6.4km/h 7.0mph /  11.3km/h 84% 0.00in /  0mm
09:44 35.2 °F /  1.8 °C 30.9 °F /  -0.6 °C 29.89in /  1012.1hPa SW 3.0mph /  4.8km/h 7.0mph /  11.3km/h 84% 0.00in /  0mm
09:49 35.2 °F /  1.8 °C 30.9 °F /  -0.6 °C 29.89in /  1012.1hPa WSW 6.0mph /  9.7km/h 6.0mph /  9.7km/h 84% 0.00in /  0mm
09:54 35.3 °F /  1.8 °C 31.2 °F /  -0.4 °C 29.90in /  1012.4hPa WSW 4.0mph /  6.4km/h 7.0mph /  11.3km/h 85% 0.00in /  0mm
09:59 35.4 °F /  1.9 °C 31.0 °F /  -0.6 °C 29.91in /  1012.8hPa WSW 4.0mph /  6.4km/h 7.0mph /  11.3km/h 84% 0.00in /  0mm
10:04 35.3 °F /  1.8 °C 30.9 °F /  -0.6 °C 29.91in /  1012.8hPa WSW 4.0mph /  6.4km/h 8.0mph /  12.9km/h 84% 0.00in /  0mm
10:09 35.3 °F /  1.8 °C 30.9 °F /  -0.6 °C 29.90in /  1012.4hPa WSW 4.0mph /  6.4km/h 10.0mph /  16.1km/h 84% 0.01in /  0.25mm
10:14 35.3 °F /  1.8 °C 30.9 °F /  -0.6 °C 29.90in /  1012.4hPa WSW 5.0mph /  8km/h 10.0mph /  16.1km/h 84% 0.01in /  0.25mm
10:19 35.4 °F /  1.9 °C 31.0 °F /  -0.6 °C 29.90in /  1012.4hPa WSW 4.0mph /  6.4km/h 7.0mph /  11.3km/h 84% 0.02in /  0.51mm
10:24 35.5 °F /  1.9 °C 31.1 °F /  -0.5 °C 29.90in /  1012.4hPa SSW 4.0mph /  6.4km/h 8.0mph /  12.9km/h 84% 0.02in /  0.51mm
10:29 35.6 °F /  2 °C 31.2 °F /  -0.4 °C 29.91in /  1012.8hPa WSW 5.0mph /  8km/h 8.0mph /  12.9km/h 84% 0.03in /  0.76mm
10:34 35.7 °F /  2.1 °C 31.3 °F /  -0.4 °C 29.90in /  1012.4hPa WSW 5.0mph /  8km/h 8.0mph /  12.9km/h 84% 0.03in /  0.76mm
10:39 35.8 °F /  2.1 °C 31.4 °F /  -0.3 °C 29.90in /  1012.4hPa West 3.0mph /  4.8km/h 7.0mph /  11.3km/h 84% 0.04in /  1.02mm
10:44 35.8 °F /  2.1 °C 31.4 °F /  -0.3 °C 29.90in /  1012.4hPa SW 3.0mph /  4.8km/h 9.0mph /  14.5km/h 84% 0.04in /  1.02mm
10:49 36.4 °F /  2.4 °C 31.7 °F /  -0.2 °C 29.91in /  1012.8hPa WSW 4.0mph /  6.4km/h 9.0mph /  14.5km/h 83% 0.04in /  1.02mm
10:54 36.9 °F /  2.7 °C 31.9 °F /  -0.1 °C 29.91in /  1012.8hPa WSW 5.0mph /  8km/h 9.0mph /  14.5km/h 82% 0.05in /  1.27mm
10:59 37.3 °F /  2.9 °C 32.3 °F /  0.2 °C 29.92in /  1013.1hPa SW 6.0mph /  9.7km/h 10.0mph /  16.1km/h 82% 0.05in /  1.27mm
11:04 37.6 °F /  3.1 °C 32.3 °F /  0.2 °C 29.91in /  1012.8hPa WSW 4.0mph /  6.4km/h 10.0mph /  16.1km/h 81% 0.06in /  1.52mm
11:09 37.7 °F /  3.2 °C 32.1 °F /  0.1 °C 29.91in /  1012.8hPa WSW 3.0mph /  4.8km/h 7.0mph /  11.3km/h 80% 0.05in /  1.27mm
11:14 38.7 °F /  3.7 °C 33.1 °F /  0.6 °C 29.92in /  1013.1hPa WSW 3.0mph /  4.8km/h 7.0mph /  11.3km/h 80% 0.04in /  1.02mm
11:19 38.4 °F /  3.6 °C 32.8 °F /  0.4 °C 29.92in /  1013.1hPa WSW 6.0mph /  9.7km/h 7.0mph /  11.3km/h 80% 0.04in /  1.02mm
11:24 38.0 °F /  3.3 °C 32.1 °F /  0.1 °C 29.92in /  1013.1hPa WSW 4.0mph /  6.4km/h 9.0mph /  14.5km/h 79% 0.04in /  1.02mm
11:29 38.4 °F /  3.6 °C 33.1 °F /  0.6 °C 29.92in /  1013.1hPa WSW 4.0mph /  6.4km/h 9.0mph /  14.5km/h 81% 0.03in /  0.76mm
11:34 37.6 °F /  3.1 °C 32.0 °F /  0 °C 29.92in /  1013.1hPa WSW 4.0mph /  6.4km/h 8.0mph /  12.9km/h 80% 0.03in /  0.76mm
11:44 38.0 °F /  3.3 °C 32.7 °F /  0.4 °C 29.92in /  1013.1hPa WSW 4.0mph /  6.4km/h 8.0mph /  12.9km/h 81% 0.02in /  0.51mm
11:49 37.8 °F /  3.2 °C 32.5 °F /  0.3 °C 29.93in /  1013.4hPa WSW 4.0mph /  6.4km/h 8.0mph /  12.9km/h 81% 0.02in /  0.51mm
11:54 38.4 °F /  3.6 °C 33.1 °F /  0.6 °C 29.93in /  1013.4hPa WSW 4.0mph /  6.4km/h 7.0mph /  11.3km/h 81% 0.01in /  0.25mm
11:59 38.3 °F /  3.5 °C 33.0 °F /  0.6 °C 29.93in /  1013.4hPa SW 6.0mph /  9.7km/h 8.0mph /  12.9km/h 81% 0.01in /  0.25mm
12:04 38.5 °F /  3.6 °C 32.9 °F /  0.5 °C 29.94in /  1013.8hPa WSW 3.0mph /  4.8km/h 7.0mph /  11.3km/h 80% 0.00in /  0mm
12:09 38.4 °F /  3.6 °C 32.8 °F /  0.4 °C 29.94in /  1013.8hPa WSW 4.0mph /  6.4km/h 7.0mph /  11.3km/h 80% 0.00in /  0mm
12:14 38.7 °F /  3.7 °C 33.1 °F /  0.6 °C 29.94in /  1013.8hPa NW 3.0mph /  4.8km/h 7.0mph /  11.3km/h 80% 0.00in /  0mm
12:19 38.5 °F /  3.6 °C 32.9 °F /  0.5 °C 29.94in /  1013.8hPa WSW 4.0mph /  6.4km/h 6.0mph /  9.7km/h 80% 0.00in /  0mm
12:24 38.3 °F /  3.5 °C 33.0 °F /  0.6 °C 29.94in /  1013.8hPa WSW 2.0mph /  3.2km/h 5.0mph /  8km/h 81% 0.00in /  0mm
12:29 38.2 °F /  3.4 °C 32.6 °F /  0.3 °C 29.95in /  1014.1hPa SW 3.0mph /  4.8km/h 7.0mph /  11.3km/h 80% 0.00in /  0mm
12:34 38.4 °F /  3.6 °C 33.1 °F /  0.6 °C 29.94in /  1013.8hPa WSW 1.0mph /  1.6km/h 4.0mph /  6.4km/h 81% 0.00in /  0mm
12:39 39.0 °F /  3.9 °C 33.7 °F /  0.9 °C 29.94in /  1013.8hPa WSW 4.0mph /  6.4km/h 4.0mph /  6.4km/h 81% 0.00in /  0mm
12:44 39.2 °F /  4 °C 33.2 °F /  0.7 °C 29.93in /  1013.4hPa WSW 2.0mph /  3.2km/h 5.0mph /  8km/h 79% 0.00in /  0mm
12:49 39.3 °F /  4.1 °C 33.3 °F /  0.7 °C 29.94in /  1013.8hPa SW 5.0mph /  8km/h 7.0mph /  11.3km/h 79% 0.00in /  0mm
12:54 39.9 °F /  4.4 °C 33.9 °F /  1.1 °C 29.95in /  1014.1hPa South 4.0mph /  6.4km/h 7.0mph /  11.3km/h 79% 0.00in /  0mm
12:59 39.3 °F /  4.1 °C 33.0 °F /  0.6 °C 29.95in /  1014.1hPa SSW 5.0mph /  8km/h 6.0mph /  9.7km/h 78% 0.00in /  0mm
13:04 39.5 °F /  4.2 °C 33.8 °F /  1 °C 29.95in /  1014.1hPa SW 3.0mph /  4.8km/h 6.0mph /  9.7km/h 80% 0.00in /  0mm
13:09 39.6 °F /  4.2 °C 33.6 °F /  0.9 °C 29.95in /  1014.1hPa WSW 3.0mph /  4.8km/h 6.0mph /  9.7km/h 79% 0.00in /  0mm
13:14 39.1 °F /  3.9 °C 32.8 °F /  0.4 °C 29.95in /  1014.1hPa SW 1.0mph /  1.6km/h 6.0mph /  9.7km/h 78% 0.00in /  0mm
13:19 39.6 °F /  4.2 °C 33.6 °F /  0.9 °C 29.95in /  1014.1hPa WSW 4.0mph /  6.4km/h 7.0mph /  11.3km/h 79% 0.00in /  0mm
13:24 39.5 °F /  4.2 °C 33.2 °F /  0.7 °C 29.95in /  1014.1hPa SW 3.0mph /  4.8km/h 7.0mph /  11.3km/h 78% 0.00in /  0mm
13:29 39.5 °F /  4.2 °C 33.8 °F /  1 °C 29.95in /  1014.1hPa WSW 4.0mph /  6.4km/h 6.0mph /  9.7km/h 80% 0.00in /  0mm
13:34 39.7 °F /  4.3 °C 33.4 °F /  0.8 °C 29.95in /  1014.1hPa SW 4.0mph /  6.4km/h 6.0mph /  9.7km/h 78% 0.00in /  0mm
13:39 39.5 °F /  4.2 °C 33.2 °F /  0.7 °C 29.94in /  1013.8hPa SW 4.0mph /  6.4km/h 9.0mph /  14.5km/h 78% 0.00in /  0mm
13:44 39.1 °F /  3.9 °C 33.1 °F /  0.6 °C 29.94in /  1013.8hPa SSW 3.0mph /  4.8km/h 8.0mph /  12.9km/h 79% 0.00in /  0mm
13:49 38.8 °F /  3.8 °C 32.5 °F /  0.3 °C 29.94in /  1013.8hPa SSW 4.0mph /  6.4km/h 8.0mph /  12.9km/h 78% 0.00in /  0mm
13:54 38.9 °F /  3.8 °C 32.9 °F /  0.5 °C 29.94in /  1013.8hPa West 2.0mph /  3.2km/h 6.0mph /  9.7km/h 79% 0.00in /  0mm
13:59 38.9 °F /  3.8 °C 32.9 °F /  0.5 °C 29.94in /  1013.8hPa WSW 3.0mph /  4.8km/h 7.0mph /  11.3km/h 79% 0.00in /  0mm
14:04 38.8 °F /  3.8 °C 32.8 °F /  0.4 °C 29.94in /  1013.8hPa SW 3.0mph /  4.8km/h 6.0mph /  9.7km/h 79% 0.00in /  0mm
14:09 38.7 °F /  3.7 °C 32.7 °F /  0.4 °C 29.95in /  1014.1hPa SW 4.0mph /  6.4km/h 7.0mph /  11.3km/h 79% 0.00in /  0mm
14:14 38.8 °F /  3.8 °C 32.8 °F /  0.4 °C 29.95in /  1014.1hPa SW 4.0mph /  6.4km/h 7.0mph /  11.3km/h 79% 0.00in /  0mm
14:19 38.8 °F /  3.8 °C 32.5 °F /  0.3 °C 29.96in /  1014.4hPa SW 4.0mph /  6.4km/h 7.0mph /  11.3km/h 78% 0.00in /  0mm
14:24 38.6 °F /  3.7 °C 32.3 °F /  0.2 °C 29.96in /  1014.4hPa SW 4.0mph /  6.4km/h 7.0mph /  11.3km/h 78% 0.00in /  0mm
14:29 38.6 °F /  3.7 °C 32.3 °F /  0.2 °C 29.95in /  1014.1hPa WSW 6.0mph /  9.7km/h 7.0mph /  11.3km/h 78% 0.00in /  0mm
14:34 38.7 °F /  3.7 °C 32.4 °F /  0.2 °C 29.96in /  1014.4hPa SW 3.0mph /  4.8km/h 7.0mph /  11.3km/h 78% 0.00in /  0mm
14:39 38.5 °F /  3.6 °C 32.2 °F /  0.1 °C 29.97in /  1014.8hPa SW 2.0mph /  3.2km/h 7.0mph /  11.3km/h 78% 0.00in /  0mm
14:44 38.3 °F /  3.5 °C 32.0 °F /  0 °C 29.96in /  1014.4hPa SW 3.0mph /  4.8km/h 7.0mph /  11.3km/h 78% 0.00in /  0mm
14:49 38.4 °F /  3.6 °C 32.1 °F /  0.1 °C 29.97in /  1014.8hPa SW 4.0mph /  6.4km/h 7.0mph /  11.3km/h 78% 0.00in /  0mm
14:54 38.1 °F /  3.4 °C 31.8 °F /  -0.1 °C 29.97in /  1014.8hPa SW 3.0mph /  4.8km/h 7.0mph /  11.3km/h 78% 0.00in /  0mm
14:59 38.1 °F /  3.4 °C 32.2 °F /  0.1 °C 29.97in /  1014.8hPa SW 5.0mph /  8km/h 6.0mph /  9.7km/h 79% 0.00in /  0mm
15:04 37.7 °F /  3.2 °C 31.5 °F /  -0.3 °C 29.96in /  1014.4hPa WSW 4.0mph /  6.4km/h 7.0mph /  11.3km/h 78% 0.00in /  0mm
15:09 37.9 °F /  3.3 °C 32.0 °F /  0 °C 29.97in /  1014.8hPa WSW 4.0mph /  6.4km/h 7.0mph /  11.3km/h 79% 0.00in /  0mm
15:14 37.8 °F /  3.2 °C 31.9 °F /  -0.1 °C 29.97in /  1014.8hPa WSW 4.0mph /  6.4km/h 7.0mph /  11.3km/h 79% 0.00in /  0mm
15:19 37.9 °F /  3.3 °C 32.3 °F /  0.2 °C 29.96in /  1014.4hPa SW 4.0mph /  6.4km/h 7.0mph /  11.3km/h 80% 0.00in /  0mm
15:24 38.0 °F /  3.3 °C 32.1 °F /  0.1 °C 29.97in /  1014.8hPa WSW 4.0mph /  6.4km/h 6.0mph /  9.7km/h 79% 0.00in /  0mm
15:29 37.8 °F /  3.2 °C 31.9 °F /  -0.1 °C 29.97in /  1014.8hPa SW 4.0mph /  6.4km/h 7.0mph /  11.3km/h 79% 0.00in /  0mm
15:34 37.7 °F /  3.2 °C 31.8 °F /  -0.1 °C 29.97in /  1014.8hPa WSW 4.0mph /  6.4km/h 8.0mph /  12.9km/h 79% 0.00in /  0mm
15:39 37.6 °F /  3.1 °C 31.7 °F /  -0.2 °C 29.98in /  1015.1hPa SW 3.0mph /  4.8km/h 8.0mph /  12.9km/h 79% 0.00in /  0mm
15:44 37.4 °F /  3 °C 31.5 °F /  -0.3 °C 29.98in /  1015.1hPa West 4.0mph /  6.4km/h 8.0mph /  12.9km/h 79% 0.00in /  0mm
15:49 37.4 °F /  3 °C 31.5 °F /  -0.3 °C 29.98in /  1015.1hPa WSW 4.0mph /  6.4km/h 6.0mph /  9.7km/h 79% 0.00in /  0mm
15:54 37.3 °F /  2.9 °C 31.4 °F /  -0.3 °C 29.99in /  1015.5hPa SW 4.0mph /  6.4km/h 6.0mph /  9.7km/h 79% 0.00in /  0mm
15:59 37.4 °F /  3 °C 31.5 °F /  -0.3 °C 29.99in /  1015.5hPa SW 3.0mph /  4.8km/h 6.0mph /  9.7km/h 79% 0.00in /  0mm
16:04 37.5 °F /  3.1 °C 31.9 °F /  -0.1 °C 29.99in /  1015.5hPa WSW 1.0mph /  1.6km/h 4.0mph /  6.4km/h 80% 0.00in /  0mm
16:09 37.6 °F /  3.1 °C 31.7 °F /  -0.2 °C 29.99in /  1015.5hPa WSW 2.0mph /  3.2km/h 3.0mph /  4.8km/h 79% 0.00in /  0mm
16:14 37.3 °F /  2.9 °C 31.4 °F /  -0.3 °C 29.99in /  1015.5hPa Calm   4.0mph /  6.4km/h 79% 0.00in /  0mm
16:19 37.2 °F /  2.9 °C 31.3 °F /  -0.4 °C 29.99in /  1015.5hPa SW 1.0mph /  1.6km/h 4.0mph /  6.4km/h 79% 0.00in /  0mm
16:24 37.2 °F /  2.9 °C 31.3 °F /  -0.4 °C 29.99in /  1015.5hPa SW 2.0mph /  3.2km/h 4.0mph /  6.4km/h 79% 0.00in /  0mm
16:29 37.2 °F /  2.9 °C 31.3 °F /  -0.4 °C 29.99in /  1015.5hPa WSW 2.0mph /  3.2km/h 4.0mph /  6.4km/h 79% 0.00in /  0mm
16:34 37.2 °F /  2.9 °C 31.3 °F /  -0.4 °C 29.99in /  1015.5hPa WSW 1.0mph /  1.6km/h 3.0mph /  4.8km/h 79% 0.00in /  0mm
16:39 37.0 °F /  2.8 °C 31.1 °F /  -0.5 °C 29.99in /  1015.5hPa WSW 1.0mph /  1.6km/h 3.0mph /  4.8km/h 79% 0.00in /  0mm
16:44 36.9 °F /  2.7 °C 31.3 °F /  -0.4 °C 29.99in /  1015.5hPa WSW 2.0mph /  3.2km/h 3.0mph /  4.8km/h 80% 0.00in /  0mm
16:49 37.0 °F /  2.8 °C 31.1 °F /  -0.5 °C 29.99in /  1015.5hPa Calm   2.0mph /  3.2km/h 79% 0.00in /  0mm
16:54 37.1 °F /  2.8 °C 31.2 °F /  -0.4 °C 30.00in /  1015.8hPa WSW 1.0mph /  1.6km/h 2.0mph /  3.2km/h 79% 0.00in /  0mm
16:59 37.0 °F /  2.8 °C 31.1 °F /  -0.5 °C 30.00in /  1015.8hPa Calm   3.0mph /  4.8km/h 79% 0.00in /  0mm
17:04 37.0 °F /  2.8 °C 31.1 °F /  -0.5 °C 30.00in /  1015.8hPa WSW 1.0mph /  1.6km/h 3.0mph /  4.8km/h 79% 0.00in /  0mm
17:09 37.0 °F /  2.8 °C 31.1 °F /  -0.5 °C 30.01in /  1016.1hPa Calm   2.0mph /  3.2km/h 79% 0.00in /  0mm
17:14 37.0 °F /  2.8 °C 31.1 °F /  -0.5 °C 30.01in /  1016.1hPa Calm   2.0mph /  3.2km/h 79% 0.00in /  0mm
17:19 36.9 °F /  2.7 °C 31.3 °F /  -0.4 °C 30.01in /  1016.1hPa Calm   2.0mph /  3.2km/h 80% 0.00in /  0mm
17:24 36.8 °F /  2.7 °C 30.9 °F /  -0.6 °C 30.00in /  1015.8hPa Calm     79% 0.00in /  0mm
17:29 36.6 °F /  2.6 °C 30.7 °F /  -0.7 °C 30.01in /  1016.1hPa Calm     79% 0.00in /  0mm
17:34 36.3 °F /  2.4 °C 30.7 °F /  -0.7 °C 30.01in /  1016.1hPa Calm   1.0mph /  1.6km/h 80% 0.00in /  0mm
17:39 36.0 °F /  2.2 °C 30.7 °F /  -0.7 °C 30.02in /  1016.5hPa Calm     81% 0.00in /  0mm
17:44 35.7 °F /  2.1 °C 30.4 °F /  -0.9 °C 30.03in /  1016.8hPa Calm     81% 0.00in /  0mm
17:49 35.5 °F /  1.9 °C 30.5 °F /  -0.8 °C 30.03in /  1016.8hPa Calm     82% 0.00in /  0mm
17:54 35.3 °F /  1.8 °C 30.4 °F /  -0.9 °C 30.03in /  1016.8hPa Calm     82% 0.00in /  0mm
17:59 35.4 °F /  1.9 °C 30.5 °F /  -0.8 °C 30.03in /  1016.8hPa Calm     82% 0.00in /  0mm
18:04 35.3 °F /  1.8 °C 30.4 °F /  -0.9 °C 30.03in /  1016.8hPa Calm     82% 0.00in /  0mm
18:14 35.1 °F /  1.7 °C 30.5 °F /  -0.8 °C 30.04in /  1017.2hPa Calm     83% 0.00in /  0mm
18:19 35.0 °F /  1.7 °C 30.4 °F /  -0.9 °C 30.05in /  1017.5hPa Calm     83% 0.00in /  0mm
18:24 34.9 °F /  1.6 °C 30.3 °F /  -0.9 °C 30.05in /  1017.5hPa Calm     83% 0.00in /  0mm
18:29 34.6 °F /  1.4 °C 30.0 °F /  -1.1 °C 30.05in /  1017.5hPa Calm     83% 0.00in /  0mm
18:34 34.4 °F /  1.3 °C 30.1 °F /  -1.1 °C 30.05in /  1017.5hPa Calm     84% 0.00in /  0mm
18:39 34.1 °F /  1.2 °C 29.8 °F /  -1.2 °C 30.05in /  1017.5hPa Calm     84% 0.00in /  0mm
18:44 34.1 °F /  1.2 °C 29.8 °F /  -1.2 °C 30.05in /  1017.5hPa Calm     84% 0.00in /  0mm
18:49 34.0 °F /  1.1 °C 30.0 °F /  -1.1 °C 30.05in /  1017.5hPa Calm     85% 0.00in /  0mm
18:54 33.9 °F /  1.1 °C 29.9 °F /  -1.2 °C 30.05in /  1017.5hPa Calm     85% 0.00in /  0mm
18:59 33.9 °F /  1.1 °C 29.9 °F /  -1.2 °C 30.05in /  1017.5hPa Calm     85% 0.00in /  0mm
19:04 34.2 °F /  1.2 °C 30.2 °F /  -1 °C 30.05in /  1017.5hPa Calm     85% 0.00in /  0mm
19:09 34.5 °F /  1.4 °C 30.5 °F /  -0.8 °C 30.05in /  1017.5hPa Calm     85% 0.00in /  0mm
19:14 34.7 °F /  1.5 °C 30.4 °F /  -0.9 °C 30.06in /  1017.8hPa Calm   1.0mph /  1.6km/h 84% 0.00in /  0mm
19:19 35.1 °F /  1.7 °C 30.8 °F /  -0.7 °C 30.06in /  1017.8hPa Calm   2.0mph /  3.2km/h 84% 0.00in /  0mm
19:24 35.2 °F /  1.8 °C 30.6 °F /  -0.8 °C 30.06in /  1017.8hPa Calm   2.0mph /  3.2km/h 83% 0.00in /  0mm
19:29 35.2 °F /  1.8 °C 30.6 °F /  -0.8 °C 30.05in /  1017.5hPa Calm     83% 0.00in /  0mm
19:34 35.2 °F /  1.8 °C 30.6 °F /  -0.8 °C 30.05in /  1017.5hPa Calm     83% 0.00in /  0mm
19:39 35.1 °F /  1.7 °C 30.5 °F /  -0.8 °C 30.05in /  1017.5hPa Calm     83% 0.00in /  0mm
19:44 34.8 °F /  1.6 °C 30.5 °F /  -0.8 °C 30.05in /  1017.5hPa Calm     84% 0.00in /  0mm
19:49 34.9 °F /  1.6 °C 30.6 °F /  -0.8 °C 30.06in /  1017.8hPa SE 2.0mph /  3.2km/h 3.0mph /  4.8km/h 84% 0.00in /  0mm
19:54 34.8 °F /  1.6 °C 30.5 °F /  -0.8 °C 30.06in /  1017.8hPa SE 1.0mph /  1.6km/h 2.0mph /  3.2km/h 84% 0.00in /  0mm
19:59 34.9 °F /  1.6 °C 30.6 °F /  -0.8 °C 30.05in /  1017.5hPa East 1.0mph /  1.6km/h 2.0mph /  3.2km/h 84% 0.00in /  0mm
20:04 34.9 °F /  1.6 °C 30.3 °F /  -0.9 °C 30.06in /  1017.8hPa Calm   2.0mph /  3.2km/h 83% 0.00in /  0mm
20:09 35.1 °F /  1.7 °C 30.5 °F /  -0.8 °C 30.06in /  1017.8hPa NE 1.0mph /  1.6km/h 4.0mph /  6.4km/h 83% 0.00in /  0mm
20:14 35.0 °F /  1.7 °C 30.1 °F /  -1.1 °C 30.06in /  1017.8hPa ENE 1.0mph /  1.6km/h 4.0mph /  6.4km/h 82% 0.00in /  0mm
20:19 35.0 °F /  1.7 °C 30.1 °F /  -1.1 °C 30.06in /  1017.8hPa ENE 1.0mph /  1.6km/h 3.0mph /  4.8km/h 82% 0.00in /  0mm
20:24 34.8 °F /  1.6 °C 29.9 °F /  -1.2 °C 30.06in /  1017.8hPa ENE 1.0mph /  1.6km/h 3.0mph /  4.8km/h 82% 0.00in /  0mm
20:29 34.7 °F /  1.5 °C 29.8 °F /  -1.2 °C 30.06in /  1017.8hPa East 1.0mph /  1.6km/h 3.0mph /  4.8km/h 82% 0.00in /  0mm
20:34 34.6 °F /  1.4 °C 29.7 °F /  -1.3 °C 30.06in /  1017.8hPa ESE 1.0mph /  1.6km/h 3.0mph /  4.8km/h 82% 0.00in /  0mm
20:39 34.5 °F /  1.4 °C 29.6 °F /  -1.3 °C 30.06in /  1017.8hPa Calm     82% 0.00in /  0mm
20:44 34.5 °F /  1.4 °C 29.6 °F /  -1.3 °C 30.06in /  1017.8hPa Calm     82% 0.00in /  0mm
20:49 34.5 °F /  1.4 °C 29.6 °F /  -1.3 °C 30.06in /  1017.8hPa Calm     82% 0.00in /  0mm
20:54 34.4 °F /  1.3 °C 29.5 °F /  -1.4 °C 30.06in /  1017.8hPa Calm     82% 0.00in /  0mm
20:59 34.4 °F /  1.3 °C 29.8 °F /  -1.2 °C 30.06in /  1017.8hPa NE 1.0mph /  1.6km/h 3.0mph /  4.8km/h 83% 0.00in /  0mm
21:04 34.4 °F /  1.3 °C 29.5 °F /  -1.4 °C 30.06in /  1017.8hPa Calm   3.0mph /  4.8km/h 82% 0.00in /  0mm
21:09 34.4 °F /  1.3 °C 29.5 °F /  -1.4 °C 30.06in /  1017.8hPa ENE 1.0mph /  1.6km/h 2.0mph /  3.2km/h 82% 0.00in /  0mm
21:14 34.4 °F /  1.3 °C 29.8 °F /  -1.2 °C 30.06in /  1017.8hPa ENE 1.0mph /  1.6km/h 2.0mph /  3.2km/h 83% 0.00in /  0mm
21:19 34.3 °F /  1.3 °C 29.7 °F /  -1.3 °C 30.06in /  1017.8hPa ENE 1.0mph /  1.6km/h 3.0mph /  4.8km/h 83% 0.00in /  0mm
21:24 34.3 °F /  1.3 °C 29.7 °F /  -1.3 °C 30.06in /  1017.8hPa ENE 1.0mph /  1.6km/h 3.0mph /  4.8km/h 83% 0.00in /  0mm
21:29 34.3 °F /  1.3 °C 29.7 °F /  -1.3 °C 30.06in /  1017.8hPa Calm   3.0mph /  4.8km/h 83% 0.00in /  0mm
21:34 34.3 °F /  1.3 °C 29.7 °F /  -1.3 °C 30.06in /  1017.8hPa ENE 1.0mph /  1.6km/h 3.0mph /  4.8km/h 83% 0.00in /  0mm
21:39 34.3 °F /  1.3 °C 29.7 °F /  -1.3 °C 30.06in /  1017.8hPa ENE 1.0mph /  1.6km/h 3.0mph /  4.8km/h 83% 0.00in /  0mm
21:44 34.4 °F /  1.3 °C 29.8 °F /  -1.2 °C 30.06in /  1017.8hPa East 1.0mph /  1.6km/h 3.0mph /  4.8km/h 83% 0.00in /  0mm
21:49 34.3 °F /  1.3 °C 29.7 °F /  -1.3 °C 30.06in /  1017.8hPa ESE 2.0mph /  3.2km/h 3.0mph /  4.8km/h 83% 0.00in /  0mm
21:54 34.3 °F /  1.3 °C 29.7 °F /  -1.3 °C 30.06in /  1017.8hPa East 1.0mph /  1.6km/h 3.0mph /  4.8km/h 83% 0.00in /  0mm
21:59 34.3 °F /  1.3 °C 29.7 °F /  -1.3 °C 30.06in /  1017.8hPa East 1.0mph /  1.6km/h 3.0mph /  4.8km/h 83% 0.00in /  0mm
22:04 34.3 °F /  1.3 °C 29.7 °F /  -1.3 °C 30.06in /  1017.8hPa East 2.0mph /  3.2km/h 4.0mph /  6.4km/h 83% 0.00in /  0mm
22:09 34.3 °F /  1.3 °C 29.7 °F /  -1.3 °C 30.05in /  1017.5hPa ESE 2.0mph /  3.2km/h 6.0mph /  9.7km/h 83% 0.00in /  0mm
22:14 34.3 °F /  1.3 °C 29.7 °F /  -1.3 °C 30.05in /  1017.5hPa ENE 1.0mph /  1.6km/h 4.0mph /  6.4km/h 83% 0.00in /  0mm
22:19 34.4 °F /  1.3 °C 29.8 °F /  -1.2 °C 30.05in /  1017.5hPa East 2.0mph /  3.2km/h 4.0mph /  6.4km/h 83% 0.00in /  0mm
22:24 34.3 °F /  1.3 °C 29.7 °F /  -1.3 °C 30.05in /  1017.5hPa East 1.0mph /  1.6km/h 5.0mph /  8km/h 83% 0.00in /  0mm
22:29 34.3 °F /  1.3 °C 29.7 °F /  -1.3 °C 30.05in /  1017.5hPa East 1.0mph /  1.6km/h 5.0mph /  8km/h 83% 0.00in /  0mm
22:34 34.2 °F /  1.2 °C 29.6 °F /  -1.3 °C 30.05in /  1017.5hPa ENE 1.0mph /  1.6km/h 3.0mph /  4.8km/h 83% 0.00in /  0mm
22:39 34.1 °F /  1.2 °C 29.5 °F /  -1.4 °C 30.04in /  1017.2hPa East 1.0mph /  1.6km/h 3.0mph /  4.8km/h 83% 0.00in /  0mm
22:44 34.1 °F /  1.2 °C 29.5 °F /  -1.4 °C 30.04in /  1017.2hPa East 1.0mph /  1.6km/h 3.0mph /  4.8km/h 83% 0.00in /  0mm
22:49 34.1 °F /  1.2 °C 29.5 °F /  -1.4 °C 30.04in /  1017.2hPa NE 1.0mph /  1.6km/h 5.0mph /  8km/h 83% 0.00in /  0mm
22:54 34.2 °F /  1.2 °C 29.6 °F /  -1.3 °C 30.04in /  1017.2hPa East 2.0mph /  3.2km/h 5.0mph /  8km/h 83% 0.00in /  0mm
22:59 34.3 °F /  1.3 °C 29.4 °F /  -1.4 °C 30.04in /  1017.2hPa East 1.0mph /  1.6km/h 5.0mph /  8km/h 82% 0.00in /  0mm
23:04 34.3 °F /  1.3 °C 29.4 °F /  -1.4 °C 30.04in /  1017.2hPa East 2.0mph /  3.2km/h 4.0mph /  6.4km/h 82% 0.00in /  0mm
23:09 34.3 °F /  1.3 °C 29.4 °F /  -1.4 °C 30.04in /  1017.2hPa ENE 1.0mph /  1.6km/h 6.0mph /  9.7km/h 82% 0.00in /  0mm
23:14 34.3 °F /  1.3 °C 29.4 °F /  -1.4 °C 30.04in /  1017.2hPa East 3.0mph /  4.8km/h 5.0mph /  8km/h 82% 0.00in /  0mm
23:19 34.4 °F /  1.3 °C 29.2 °F /  -1.6 °C 30.03in /  1016.8hPa ENE 2.0mph /  3.2km/h 7.0mph /  11.3km/h 81% 0.00in /  0mm
23:24 34.5 °F /  1.4 °C 29.3 °F /  -1.5 °C 30.03in /  1016.8hPa ENE 3.0mph /  4.8km/h 7.0mph /  11.3km/h 81% 0.00in /  0mm
23:29 34.6 °F /  1.4 °C 29.1 °F /  -1.6 °C 30.04in /  1017.2hPa ENE 3.0mph /  4.8km/h 7.0mph /  11.3km/h 80% 0.00in /  0mm
23:34 34.7 °F /  1.5 °C 29.2 °F /  -1.6 °C 30.04in /  1017.2hPa ENE 3.0mph /  4.8km/h 7.0mph /  11.3km/h 80% 0.00in /  0mm
23:39 34.6 °F /  1.4 °C 29.1 °F /  -1.6 °C 30.04in /  1017.2hPa ENE 3.0mph /  4.8km/h 7.0mph /  11.3km/h 80% 0.00in /  0mm
23:44 34.6 °F /  1.4 °C 29.4 °F /  -1.4 °C 30.04in /  1017.2hPa ENE 3.0mph /  4.8km/h 7.0mph /  11.3km/h 81% 0.00in /  0mm
23:49 34.6 °F /  1.4 °C 29.1 °F /  -1.6 °C 30.04in /  1017.2hPa ENE 3.0mph /  4.8km/h 8.0mph /  12.9km/h 80% 0.00in /  0mm
23:54 34.7 °F /  1.5 °C 29.2 °F /  -1.6 °C 30.04in /  1017.2hPa NE 3.0mph /  4.8km/h 8.0mph /  12.9km/h 80% 0.00in /  0mm
23:59 34.7 °F /  1.5 °C 29.2 °F /  -1.6 °C 30.03in /  1016.8hPa East 4.0mph /  6.4km/h 8.0mph /  12.9km/h 80% 0.00in /  0mm
Buffalo, New York, USA
Compliments of Weather Underground - 2.5 mb